createdAt,value
2016-09-01T00:00:16.445Z,0.00
2016-09-01T00:01:17.869Z,0.00
2016-09-01T00:02:17.611Z,0.00
2016-09-01T00:03:17.990Z,0.00
2016-09-01T00:04:18.487Z,0.00
2016-09-01T00:05:19.304Z,0.00
2016-09-01T00:06:19.515Z,0.00
2016-09-01T00:07:20.030Z,0.00
2016-09-01T00:08:20.540Z,0.00
2016-09-01T00:09:21.050Z,0.00
2016-09-01T00:10:21.565Z,0.00
2016-09-01T00:11:22.232Z,0.00
2016-09-01T00:12:22.586Z,0.00
2016-09-01T00:13:23.245Z,0.00
2016-09-01T00:14:23.604Z,0.00
2016-09-01T00:15:24.267Z,0.00
2016-09-01T00:16:24.632Z,0.00
2016-09-01T00:17:25.158Z,0.00
2016-09-01T00:18:25.661Z,0.00
2016-09-01T00:19:26.175Z,0.00
2016-09-01T00:20:27.288Z,0.00
2016-09-01T00:21:27.217Z,0.00
2016-09-01T00:22:27.747Z,0.00
2016-09-01T00:23:28.233Z,0.00
2016-09-01T00:24:28.766Z,0.00
2016-09-01T00:25:29.406Z,0.00
2016-09-01T00:26:29.792Z,0.00
2016-09-01T00:27:30.281Z,0.00
2016-09-01T00:28:30.796Z,0.00
2016-09-01T00:29:31.307Z,0.00
2016-09-01T00:30:32.116Z,0.00
2016-09-01T00:31:32.328Z,0.00
2016-09-01T00:32:32.838Z,0.00
2016-09-01T00:33:33.350Z,0.00
2016-09-01T00:34:34.024Z,0.00
2016-09-01T00:35:34.381Z,0.00
2016-09-01T00:36:34.891Z,0.00
2016-09-01T00:37:35.402Z,0.00
2016-09-01T00:38:36.070Z,0.00
2016-09-01T00:39:36.433Z,0.00
2016-09-01T00:40:36.942Z,0.00
2016-09-01T00:41:37.470Z,0.00
2016-09-01T00:42:37.967Z,0.00
2016-09-01T00:43:38.478Z,0.00
2016-09-01T00:44:39.140Z,0.00
2016-09-01T00:45:39.514Z,0.00
2016-09-01T00:46:40.018Z,0.00
2016-09-01T00:47:40.530Z,0.00
2016-09-01T00:48:41.185Z,0.00
2016-09-01T00:49:41.556Z,0.00
2016-09-01T00:50:42.067Z,0.00
2016-09-01T00:51:42.577Z,0.00
2016-09-01T00:52:43.093Z,0.00
2016-09-01T00:53:43.758Z,0.00
2016-09-01T00:54:44.121Z,0.00
2016-09-01T00:55:44.652Z,0.00
2016-09-01T00:56:45.310Z,0.00
2016-09-01T00:57:45.694Z,0.00
2016-09-01T00:58:46.203Z,0.00
2016-09-01T00:59:46.699Z,0.00
2016-09-01T01:00:47.216Z,0.00
2016-09-01T01:01:48.927Z,0.00
2016-09-01T01:02:48.242Z,0.00
2016-09-01T01:03:48.905Z,0.00
2016-09-01T01:04:49.271Z,0.00
2016-09-01T01:05:49.932Z,0.00
2016-09-01T01:06:50.599Z,0.00
2016-09-01T01:07:50.805Z,0.00
2016-09-01T01:08:51.313Z,0.00
2016-09-01T01:09:51.841Z,0.00
2016-09-01T01:10:52.353Z,0.00
2016-09-01T01:11:52.862Z,0.00
2016-09-01T01:12:53.368Z,0.00
2016-09-01T01:13:53.880Z,0.00
2016-09-01T01:14:54.390Z,0.00
2016-09-01T01:15:54.908Z,0.00
2016-09-01T01:16:55.569Z,0.00
2016-09-01T01:17:55.936Z,0.00
2016-09-01T01:18:56.444Z,0.00
2016-09-01T01:19:57.104Z,0.00
2016-09-01T01:20:57.620Z,0.00
2016-09-01T01:21:57.984Z,0.00
2016-09-01T01:22:58.497Z,0.00
2016-09-01T01:23:59.155Z,0.00
2016-09-01T01:24:59.669Z,0.00
2016-09-01T01:26:00.035Z,0.00
2016-09-01T01:27:00.545Z,0.00
2016-09-01T01:28:01.382Z,0.00
2016-09-01T01:29:01.721Z,0.00
2016-09-01T01:30:02.083Z,0.00
2016-09-01T01:31:02.596Z,0.00
2016-09-01T01:32:03.102Z,0.00
2016-09-01T01:33:03.778Z,0.00
2016-09-01T01:34:04.132Z,0.00
2016-09-01T01:35:04.791Z,0.00
2016-09-01T01:36:05.158Z,0.00
2016-09-01T01:37:05.978Z,0.00
2016-09-01T01:38:06.201Z,0.00
2016-09-01T01:39:06.707Z,0.00
2016-09-01T01:40:07.547Z,0.00
2016-09-01T01:41:07.736Z,0.00
2016-09-01T01:42:08.248Z,0.00
2016-09-01T01:43:08.757Z,0.00
2016-09-01T01:44:09.275Z,0.00
2016-09-01T01:45:09.788Z,0.00
2016-09-01T01:46:10.305Z,0.00
2016-09-01T01:47:10.807Z,0.00
2016-09-01T01:48:11.322Z,0.00
2016-09-01T01:49:11.827Z,0.00
2016-09-01T01:50:12.336Z,0.00
2016-09-01T01:51:12.862Z,0.00
2016-09-01T01:52:13.364Z,0.00
2016-09-01T01:53:13.875Z,0.00
2016-09-01T01:54:14.537Z,0.00
2016-09-01T01:55:15.052Z,0.00
2016-09-01T01:56:15.408Z,0.00
2016-09-01T01:57:16.078Z,0.00
2016-09-01T01:58:16.440Z,0.00
2016-09-01T01:59:16.947Z,0.00
2016-09-01T02:00:17.461Z,0.00
2016-09-01T02:01:18.122Z,0.00
2016-09-01T02:02:18.482Z,0.00
2016-09-01T02:03:19.146Z,0.00
2016-09-01T02:04:19.505Z,0.00
2016-09-01T02:05:20.166Z,0.00
2016-09-01T02:06:20.684Z,0.00
2016-09-01T02:07:22.399Z,0.00
2016-09-01T02:08:21.704Z,0.00
2016-09-01T02:09:22.070Z,0.00
2016-09-01T02:10:22.582Z,0.00
2016-09-01T02:11:23.240Z,0.00
2016-09-01T02:12:23.750Z,0.00
2016-09-01T02:13:24.113Z,0.00
2016-09-01T02:14:24.631Z,0.00
2016-09-01T02:15:25.150Z,0.00
2016-09-01T02:16:25.670Z,0.00
2016-09-01T02:17:26.178Z,0.00
2016-09-01T02:18:26.714Z,0.00
2016-09-01T02:19:27.215Z,0.00
2016-09-01T02:20:27.714Z,0.00
2016-09-01T02:21:28.225Z,0.00
2016-09-01T02:22:28.889Z,0.00
2016-09-01T02:23:29.253Z,0.00
2016-09-01T02:24:29.771Z,0.00
2016-09-01T02:25:30.578Z,0.00
2016-09-01T02:26:30.938Z,0.00
2016-09-01T02:27:31.304Z,0.00
2016-09-01T02:28:32.419Z,0.00
2016-09-01T02:29:32.324Z,0.00
2016-09-01T02:30:32.839Z,0.00
2016-09-01T02:31:33.349Z,0.00
2016-09-01T02:32:33.899Z,0.00
2016-09-01T02:33:34.373Z,0.00
2016-09-01T02:34:35.184Z,0.00
2016-09-01T02:35:35.393Z,0.00
2016-09-01T02:36:35.910Z,0.00
2016-09-01T02:37:36.417Z,0.00
2016-09-01T02:38:37.078Z,0.00
2016-09-01T02:39:37.443Z,0.00
2016-09-01T02:40:37.957Z,0.00
2016-09-01T02:41:38.468Z,0.00
2016-09-01T02:42:38.986Z,0.00
2016-09-01T02:43:39.662Z,0.00
2016-09-01T02:44:40.157Z,0.00
2016-09-01T02:45:40.518Z,0.00
2016-09-01T02:46:41.043Z,0.00
2016-09-01T02:47:41.543Z,0.00
2016-09-01T02:48:42.083Z,0.00
2016-09-01T02:49:42.571Z,0.00
2016-09-01T02:50:43.087Z,0.00
2016-09-01T02:51:43.758Z,0.00
2016-09-01T02:52:44.274Z,0.00
2016-09-01T02:53:44.812Z,0.00
2016-09-01T02:54:45.151Z,0.00
2016-09-01T02:55:46.863Z,0.00
2016-09-01T02:56:46.175Z,0.00
2016-09-01T02:57:46.844Z,0.00
2016-09-01T02:58:47.359Z,0.00
2016-09-01T02:59:47.722Z,0.00
2016-09-01T03:00:48.235Z,0.00
2016-09-01T03:01:48.744Z,0.00
2016-09-01T03:02:49.252Z,0.00
2016-09-01T03:03:49.765Z,0.00
2016-09-01T03:04:50.278Z,0.00
2016-09-01T03:05:51.087Z,0.00
2016-09-01T03:06:51.447Z,0.00
2016-09-01T03:07:51.812Z,0.00
2016-09-01T03:08:52.337Z,0.00
2016-09-01T03:09:52.836Z,0.00
2016-09-01T03:10:53.351Z,0.00
2016-09-01T03:11:53.890Z,0.00
2016-09-01T03:12:54.413Z,0.00
2016-09-01T03:13:54.887Z,0.00
2016-09-01T03:14:55.395Z,0.00
2016-09-01T03:15:55.904Z,0.00
2016-09-01T03:16:56.421Z,0.00
2016-09-01T03:17:56.934Z,0.00
2016-09-01T03:18:57.448Z,0.00
2016-09-01T03:19:57.958Z,0.00
2016-09-01T03:20:58.621Z,0.00
2016-09-01T03:21:59.131Z,0.00
2016-09-01T03:22:59.498Z,0.00
2016-09-01T03:24:00.007Z,0.00
2016-09-01T03:25:00.674Z,0.00
2016-09-01T03:26:01.059Z,0.00
2016-09-01T03:27:01.696Z,0.00
2016-09-01T03:28:02.061Z,0.00
2016-09-01T03:29:02.577Z,0.00
2016-09-01T03:30:03.243Z,0.00
2016-09-01T03:31:03.614Z,0.00
2016-09-01T03:32:04.270Z,0.00
2016-09-01T03:33:04.634Z,0.00
2016-09-01T03:34:05.147Z,0.00
2016-09-01T03:35:05.658Z,0.00
2016-09-01T03:36:06.769Z,0.00
2016-09-01T03:37:06.833Z,0.00
2016-09-01T03:38:07.202Z,0.00
2016-09-01T03:39:07.737Z,0.00
2016-09-01T03:40:08.222Z,0.00
2016-09-01T03:41:08.736Z,0.00
2016-09-01T03:42:09.248Z,0.00
2016-09-01T03:43:09.761Z,0.00
2016-09-01T03:44:10.421Z,0.00
2016-09-01T03:45:10.791Z,0.00
2016-09-01T03:46:11.452Z,0.00
2016-09-01T03:47:11.960Z,0.00
2016-09-01T03:48:12.324Z,0.00
2016-09-01T03:49:12.841Z,0.00
2016-09-01T03:50:13.352Z,0.00
2016-09-01T03:51:13.862Z,0.00
2016-09-01T03:52:14.397Z,0.00
2016-09-01T03:53:14.904Z,0.00
2016-09-01T03:54:15.397Z,0.00
2016-09-01T03:55:16.212Z,0.00
2016-09-01T03:56:16.567Z,0.00
2016-09-01T03:57:16.933Z,0.00
2016-09-01T03:58:17.440Z,0.00
2016-09-01T03:59:17.954Z,0.00
2016-09-01T04:00:18.473Z,0.00
2016-09-01T04:01:19.126Z,0.00
2016-09-01T04:02:19.491Z,0.00
2016-09-01T04:03:20.004Z,0.00
2016-09-01T04:04:20.516Z,0.00
2016-09-01T04:05:21.183Z,0.00
2016-09-01T04:06:21.571Z,0.00
2016-09-01T04:07:22.209Z,0.00
2016-09-01T04:08:22.575Z,0.00
2016-09-01T04:09:23.097Z,0.00
2016-09-01T04:10:23.604Z,0.00
2016-09-01T04:11:24.121Z,0.00
2016-09-01T04:12:24.780Z,0.00
2016-09-01T04:13:25.136Z,0.00
2016-09-01T04:14:25.805Z,0.00
2016-09-01T04:15:26.164Z,0.00
2016-09-01T04:16:26.828Z,0.00
2016-09-01T04:17:27.193Z,0.00
2016-09-01T04:18:27.706Z,0.00
2016-09-01T04:19:28.227Z,0.00
2016-09-01T04:20:28.733Z,0.00
2016-09-01T04:21:29.263Z,0.00
2016-09-01T04:22:29.756Z,0.00
2016-09-01T04:23:30.275Z,0.00
2016-09-01T04:24:30.777Z,0.00
2016-09-01T04:25:31.287Z,0.00
2016-09-01T04:26:31.802Z,0.00
2016-09-01T04:27:32.318Z,0.00
2016-09-01T04:28:32.826Z,0.00
2016-09-01T04:29:33.341Z,0.00
2016-09-01T04:30:33.852Z,0.00
2016-09-01T04:31:34.359Z,0.00
2016-09-01T04:32:34.875Z,0.00
2016-09-01T04:33:35.393Z,0.00
2016-09-01T04:34:35.928Z,0.00
2016-09-01T04:35:36.562Z,0.00
2016-09-01T04:36:36.928Z,0.00
2016-09-01T04:37:37.587Z,0.00
2016-09-01T04:38:38.102Z,0.00
2016-09-01T04:39:38.465Z,0.00
2016-09-01T04:40:38.977Z,0.00
2016-09-01T04:41:39.493Z,0.00
2016-09-01T04:42:40.006Z,0.00
2016-09-01T04:43:41.272Z,0.00
2016-09-01T04:44:41.034Z,0.00
2016-09-01T04:45:41.703Z,0.00
2016-09-01T04:46:42.067Z,0.00
2016-09-01T04:47:42.616Z,0.00
2016-09-01T04:48:43.232Z,1.00
2016-09-01T04:49:43.602Z,1.00
2016-09-01T04:50:44.114Z,1.00
2016-09-01T04:51:44.771Z,1.00
2016-09-01T04:52:45.134Z,1.00
2016-09-01T04:53:45.794Z,1.00
2016-09-01T04:54:46.151Z,1.00
2016-09-01T04:55:46.667Z,1.00
2016-09-01T04:56:47.180Z,1.00
2016-09-01T04:57:47.842Z,1.00
2016-09-01T04:58:48.352Z,1.00
2016-09-01T04:59:48.713Z,1.00
2016-09-01T05:00:49.228Z,1.00
2016-09-01T05:01:49.762Z,1.00
2016-09-01T05:02:50.249Z,1.00
2016-09-01T05:03:50.760Z,2.00
2016-09-01T05:04:51.272Z,2.00
2016-09-01T05:05:51.935Z,2.00
2016-09-01T05:06:52.297Z,2.00
2016-09-01T05:07:52.815Z,2.00
2016-09-01T05:08:53.331Z,2.00
2016-09-01T05:09:53.834Z,2.00
2016-09-01T05:10:54.345Z,2.00
2016-09-01T05:11:54.856Z,2.00
2016-09-01T05:12:55.372Z,2.00
2016-09-01T05:13:55.882Z,3.00
2016-09-01T05:14:56.418Z,3.00
2016-09-01T05:15:59.031Z,3.00
2016-09-01T05:16:57.559Z,3.00
2016-09-01T05:17:57.928Z,3.00
2016-09-01T05:18:58.444Z,3.00
2016-09-01T05:19:58.954Z,3.00
2016-09-01T05:20:59.486Z,3.00
2016-09-01T05:21:59.987Z,3.00
2016-09-01T05:23:00.506Z,4.00
2016-09-01T05:24:01.023Z,4.00
2016-09-01T05:25:01.533Z,4.00
2016-09-01T05:26:02.051Z,4.00
2016-09-01T05:27:02.558Z,4.00
2016-09-01T05:28:03.094Z,4.00
2016-09-01T05:29:03.610Z,4.00
2016-09-01T05:30:04.109Z,5.00
2016-09-01T05:31:04.751Z,5.00
2016-09-01T05:32:05.119Z,5.00
2016-09-01T05:33:05.781Z,5.00
2016-09-01T05:34:06.293Z,5.00
2016-09-01T05:35:06.807Z,5.00
2016-09-01T05:36:07.166Z,6.00
2016-09-01T05:37:07.680Z,6.00
2016-09-01T05:38:08.345Z,6.00
2016-09-01T05:39:08.856Z,6.00
2016-09-01T05:40:09.683Z,6.00
2016-09-01T05:41:09.883Z,6.00
2016-09-01T05:42:10.246Z,7.00
2016-09-01T05:43:10.758Z,8.00
2016-09-01T05:44:11.576Z,8.00
2016-09-01T05:45:11.788Z,8.00
2016-09-01T05:46:13.644Z,8.00
2016-09-01T05:47:12.959Z,8.00
2016-09-01T05:48:13.321Z,9.00
2016-09-01T05:49:13.833Z,9.00
2016-09-01T05:50:14.364Z,9.00
2016-09-01T05:51:15.010Z,9.00
2016-09-01T05:52:15.374Z,9.00
2016-09-01T05:53:15.884Z,9.00
2016-09-01T05:54:16.392Z,10.00
2016-09-01T05:55:17.358Z,10.00
2016-09-01T05:56:17.426Z,10.00
2016-09-01T05:57:17.958Z,11.00
2016-09-01T05:58:18.450Z,11.00
2016-09-01T05:59:18.966Z,12.00
2016-09-01T06:00:19.481Z,11.00
2016-09-01T06:01:19.999Z,11.00
2016-09-01T06:02:20.677Z,11.00
2016-09-01T06:03:21.027Z,12.00
2016-09-01T06:04:21.694Z,12.00
2016-09-01T06:05:22.212Z,13.00
2016-09-01T06:06:22.572Z,13.00
2016-09-01T06:07:23.082Z,13.00
2016-09-01T06:08:23.737Z,14.00
2016-09-01T06:09:24.257Z,14.00
2016-09-01T06:10:24.633Z,14.00
2016-09-01T06:11:25.144Z,15.00
2016-09-01T06:12:25.638Z,15.00
2016-09-01T06:13:26.147Z,15.00
2016-09-01T06:14:26.665Z,15.00
2016-09-01T06:15:28.219Z,15.00
2016-09-01T06:16:27.681Z,15.00
2016-09-01T06:17:28.189Z,15.00
2016-09-01T06:18:28.853Z,15.00
2016-09-01T06:19:29.228Z,16.00
2016-09-01T06:20:29.876Z,17.00
2016-09-01T06:21:30.236Z,17.00
2016-09-01T06:22:30.896Z,17.00
2016-09-01T06:23:31.403Z,17.00
2016-09-01T06:24:31.770Z,17.00
2016-09-01T06:25:32.287Z,17.00
2016-09-01T06:26:32.798Z,17.00
2016-09-01T06:27:33.309Z,18.00
2016-09-01T06:28:33.977Z,18.00
2016-09-01T06:29:34.481Z,18.00
2016-09-01T06:30:35.442Z,19.00
2016-09-01T06:31:35.352Z,19.00
2016-09-01T06:32:36.014Z,19.00
2016-09-01T06:33:36.374Z,19.00
2016-09-01T06:34:36.888Z,18.00
2016-09-01T06:35:38.000Z,18.00
2016-09-01T06:36:37.918Z,17.00
2016-09-01T06:37:38.579Z,17.00
2016-09-01T06:38:38.946Z,18.00
2016-09-01T06:39:39.465Z,18.00
2016-09-01T06:40:39.978Z,19.00
2016-09-01T06:41:40.489Z,19.00
2016-09-01T06:42:40.998Z,19.00
2016-09-01T06:43:41.661Z,19.00
2016-09-01T06:44:42.175Z,19.00
2016-09-01T06:45:42.534Z,19.00
2016-09-01T06:46:43.048Z,19.00
2016-09-01T06:47:43.557Z,19.00
2016-09-01T06:48:44.225Z,20.00
2016-09-01T06:49:44.584Z,20.00
2016-09-01T06:50:45.131Z,19.00
2016-09-01T06:51:47.407Z,20.00
2016-09-01T06:52:46.871Z,20.00
2016-09-01T06:53:46.635Z,20.00
2016-09-01T06:54:47.148Z,20.00
2016-09-01T06:55:47.659Z,20.00
2016-09-01T06:56:48.171Z,22.00
2016-09-01T06:57:48.685Z,23.00
2016-09-01T06:58:49.345Z,24.00
2016-09-01T06:59:49.710Z,23.00
2016-09-01T07:00:50.222Z,24.00
2016-09-01T07:01:50.732Z,24.00
2016-09-01T07:02:51.242Z,23.00
2016-09-01T07:03:51.905Z,22.00
2016-09-01T07:04:52.289Z,21.00
2016-09-01T07:05:52.806Z,16.00
2016-09-01T07:06:53.292Z,13.00
2016-09-01T07:07:53.830Z,15.00
2016-09-01T07:08:54.318Z,14.00
2016-09-01T07:09:54.829Z,22.00
2016-09-01T07:10:55.344Z,23.00
2016-09-01T07:11:55.853Z,24.00
2016-09-01T07:12:56.368Z,25.00
2016-09-01T07:13:56.882Z,25.00
2016-09-01T07:14:57.393Z,25.00
2016-09-01T07:15:58.056Z,25.00
2016-09-01T07:16:58.426Z,25.00
2016-09-01T07:17:59.089Z,25.00
2016-09-01T07:18:59.458Z,25.00
2016-09-01T07:19:59.976Z,25.00
2016-09-01T07:21:00.489Z,26.00
2016-09-01T07:22:01.593Z,26.00
2016-09-01T07:23:01.508Z,26.00
2016-09-01T07:24:02.324Z,26.00
2016-09-01T07:25:02.681Z,26.00
2016-09-01T07:26:03.044Z,27.00
2016-09-01T07:27:03.558Z,27.00
2016-09-01T07:28:04.068Z,28.00
2016-09-01T07:29:04.730Z,28.00
2016-09-01T07:30:05.092Z,28.00
2016-09-01T07:31:05.628Z,28.00
2016-09-01T07:32:06.121Z,28.00
2016-09-01T07:33:06.635Z,28.00
2016-09-01T07:34:07.298Z,30.00
2016-09-01T07:35:07.658Z,29.00
2016-09-01T07:36:08.172Z,29.00
2016-09-01T07:37:08.681Z,29.00
2016-09-01T07:38:09.195Z,29.00
2016-09-01T07:39:09.858Z,29.00
2016-09-01T07:40:10.219Z,29.00
2016-09-01T07:41:10.886Z,30.00
2016-09-01T07:42:11.245Z,30.00
2016-09-01T07:43:11.751Z,30.00
2016-09-01T07:44:12.278Z,30.00
2016-09-01T07:45:12.778Z,31.00
2016-09-01T07:46:13.292Z,31.00
2016-09-01T07:47:13.807Z,31.00
2016-09-01T07:48:14.321Z,31.00
2016-09-01T07:49:14.830Z,31.00
2016-09-01T07:50:15.493Z,31.00
2016-09-01T07:51:15.853Z,31.00
2016-09-01T07:52:16.381Z,31.00
2016-09-01T07:53:16.883Z,31.00
2016-09-01T07:54:17.402Z,31.00
2016-09-01T07:55:18.514Z,31.00
2016-09-01T07:56:18.741Z,30.00
2016-09-01T07:57:19.097Z,31.00
2016-09-01T07:58:19.603Z,32.00
2016-09-01T07:59:19.967Z,32.00
2016-09-01T08:00:20.634Z,33.00
2016-09-01T08:01:20.989Z,33.00
2016-09-01T08:02:21.502Z,33.00
2016-09-01T08:03:22.017Z,34.00
2016-09-01T08:04:22.530Z,35.00
2016-09-01T08:05:23.643Z,32.00
2016-09-01T08:06:23.550Z,33.00
2016-09-01T08:07:24.062Z,33.00
2016-09-01T08:08:24.573Z,33.00
2016-09-01T08:09:25.093Z,33.00
2016-09-01T08:10:25.630Z,34.00
2016-09-01T08:11:26.136Z,35.00
2016-09-01T08:12:26.620Z,35.00
2016-09-01T08:13:27.139Z,35.00
2016-09-01T08:14:27.799Z,36.00
2016-09-01T08:15:28.156Z,36.00
2016-09-01T08:16:28.670Z,36.00
2016-09-01T08:17:30.389Z,36.00
2016-09-01T08:18:29.843Z,35.00
2016-09-01T08:19:30.203Z,35.00
2016-09-01T08:20:31.162Z,34.00
2016-09-01T08:21:31.377Z,34.00
2016-09-01T08:22:32.059Z,34.00
2016-09-01T08:23:32.270Z,34.00
2016-09-01T08:24:32.926Z,34.00
2016-09-01T08:25:33.275Z,36.00
2016-09-01T08:26:33.784Z,36.00
2016-09-01T08:27:34.299Z,37.00
2016-09-01T08:28:34.962Z,37.00
2016-09-01T08:29:36.527Z,37.00
2016-09-01T08:30:35.997Z,37.00
2016-09-01T08:31:36.357Z,36.00
2016-09-01T08:32:36.871Z,36.00
2016-09-01T08:33:37.382Z,35.00
2016-09-01T08:34:37.894Z,35.00
2016-09-01T08:35:38.554Z,32.00
2016-09-01T08:36:38.914Z,32.00
2016-09-01T08:37:39.431Z,33.00
2016-09-01T08:38:39.954Z,34.00
2016-09-01T08:39:40.455Z,34.00
2016-09-01T08:40:40.966Z,33.00
2016-09-01T08:41:41.482Z,36.00
2016-09-01T08:42:42.006Z,36.00
2016-09-01T08:43:42.503Z,36.00
2016-09-01T08:44:43.017Z,36.00
2016-09-01T08:45:43.533Z,37.00
2016-09-01T08:46:44.044Z,37.00
2016-09-01T08:47:44.556Z,36.00
2016-09-01T08:48:45.216Z,34.00
2016-09-01T08:49:45.579Z,35.00
2016-09-01T08:50:46.094Z,35.00
2016-09-01T08:51:46.624Z,34.00
2016-09-01T08:52:47.125Z,33.00
2016-09-01T08:53:47.624Z,31.00
2016-09-01T08:54:48.141Z,31.00
2016-09-01T08:55:48.650Z,32.00
2016-09-01T08:56:49.162Z,34.00
2016-09-01T08:57:49.670Z,34.00
2016-09-01T08:58:50.212Z,34.00
2016-09-01T08:59:51.143Z,34.00
2016-09-01T09:00:51.204Z,34.00
2016-09-01T09:01:51.739Z,33.00
2016-09-01T09:02:52.231Z,37.00
2016-09-01T09:03:52.743Z,40.00
2016-09-01T09:04:53.256Z,41.00
2016-09-01T09:05:53.923Z,41.00
2016-09-01T09:06:54.312Z,41.00
2016-09-01T09:07:54.806Z,41.00
2016-09-01T09:08:55.481Z,41.00
2016-09-01T09:09:55.833Z,38.00
2016-09-01T09:10:56.347Z,37.00
2016-09-01T09:11:56.863Z,41.00
2016-09-01T09:12:57.374Z,43.00
2016-09-01T09:13:57.888Z,44.00
2016-09-01T09:14:58.403Z,44.00
2016-09-01T09:15:58.919Z,44.00
2016-09-01T09:16:59.426Z,44.00
2016-09-01T09:18:00.094Z,45.00
2016-09-01T09:19:00.460Z,46.00
2016-09-01T09:20:00.962Z,46.00
2016-09-01T09:21:01.477Z,46.00
2016-09-01T09:22:02.140Z,46.00
2016-09-01T09:23:02.654Z,47.00
2016-09-01T09:24:03.460Z,47.00
2016-09-01T09:25:03.526Z,47.00
2016-09-01T09:26:04.037Z,46.00
2016-09-01T09:27:04.545Z,45.00
2016-09-01T09:28:05.056Z,45.00
2016-09-01T09:29:05.574Z,44.00
2016-09-01T09:30:06.385Z,44.00
2016-09-01T09:31:06.776Z,43.00
2016-09-01T09:32:07.272Z,44.00
2016-09-01T09:33:07.763Z,45.00
2016-09-01T09:34:08.130Z,48.00
2016-09-01T09:35:08.641Z,48.00
2016-09-01T09:36:09.153Z,48.00
2016-09-01T09:37:09.665Z,48.00
2016-09-01T09:38:10.201Z,47.00
2016-09-01T09:39:10.842Z,46.00
2016-09-01T09:40:11.517Z,46.00
2016-09-01T09:41:11.873Z,44.00
2016-09-01T09:42:12.388Z,44.00
2016-09-01T09:43:12.750Z,47.00
2016-09-01T09:44:13.419Z,47.00
2016-09-01T09:45:13.786Z,46.00
2016-09-01T09:46:14.454Z,46.00
2016-09-01T09:47:14.817Z,44.00
2016-09-01T09:48:15.339Z,44.00
2016-09-01T09:49:15.854Z,47.00
2016-09-01T09:50:16.349Z,50.00
2016-09-01T09:51:17.016Z,50.00
2016-09-01T09:52:17.528Z,49.00
2016-09-01T09:53:17.891Z,48.00
2016-09-01T09:54:18.405Z,49.00
2016-09-01T09:55:19.066Z,48.00
2016-09-01T09:56:19.430Z,48.00
2016-09-01T09:57:19.947Z,47.00
2016-09-01T09:58:20.457Z,46.00
2016-09-01T09:59:21.117Z,45.00
2016-09-01T10:00:21.482Z,44.00
2016-09-01T10:01:21.989Z,46.00
2016-09-01T10:02:22.503Z,46.00
2016-09-01T10:03:23.015Z,45.00
2016-09-01T10:04:23.537Z,46.00
2016-09-01T10:05:24.939Z,48.00
2016-09-01T10:06:24.546Z,49.00
2016-09-01T10:07:25.210Z,49.00
2016-09-01T10:08:25.573Z,49.00
2016-09-01T10:09:26.081Z,49.00
2016-09-01T10:10:27.197Z,49.00
2016-09-01T10:11:27.106Z,49.00
2016-09-01T10:12:27.767Z,51.00
2016-09-01T10:13:28.126Z,50.00
2016-09-01T10:14:28.659Z,51.00
2016-09-01T10:15:29.604Z,48.00
2016-09-01T10:16:29.664Z,50.00
2016-09-01T10:17:30.176Z,46.00
2016-09-01T10:18:30.840Z,51.00
2016-09-01T10:19:31.213Z,49.00
2016-09-01T10:20:31.864Z,46.00
2016-09-01T10:21:32.403Z,42.00
2016-09-01T10:22:32.756Z,42.00
2016-09-01T10:23:33.281Z,36.00
2016-09-01T10:24:33.766Z,38.00
2016-09-01T10:25:34.768Z,33.00
2016-09-01T10:26:34.796Z,40.00
2016-09-01T10:27:35.308Z,45.00
2016-09-01T10:28:35.820Z,30.00
2016-09-01T10:29:36.331Z,44.00
2016-09-01T10:30:36.842Z,49.00
2016-09-01T10:31:37.504Z,51.00
2016-09-01T10:32:37.865Z,50.00
2016-09-01T10:33:38.374Z,49.00
2016-09-01T10:34:38.883Z,44.00
2016-09-01T10:35:39.393Z,47.00
2016-09-01T10:36:40.055Z,50.00
2016-09-01T10:37:40.569Z,49.00
2016-09-01T10:38:41.092Z,46.00
2016-09-01T10:39:41.442Z,39.00
2016-09-01T10:40:41.953Z,47.00
2016-09-01T10:41:42.467Z,49.00
2016-09-01T10:42:42.985Z,48.00
2016-09-01T10:43:43.490Z,33.00
2016-09-01T10:44:44.003Z,50.00
2016-09-01T10:45:44.518Z,53.00
2016-09-01T10:46:45.193Z,53.00
2016-09-01T10:47:45.543Z,53.00
2016-09-01T10:48:46.207Z,52.00
2016-09-01T10:49:46.722Z,53.00
2016-09-01T10:50:47.081Z,54.00
2016-09-01T10:51:47.601Z,50.00
2016-09-01T10:52:48.107Z,49.00
2016-09-01T10:53:48.609Z,28.00
2016-09-01T10:54:49.196Z,24.00
2016-09-01T10:55:49.783Z,40.00
2016-09-01T10:56:50.451Z,32.00
2016-09-01T10:57:50.661Z,27.00
2016-09-01T10:58:51.323Z,27.00
2016-09-01T10:59:51.692Z,47.00
2016-09-01T11:00:52.217Z,48.00
2016-09-01T11:01:52.872Z,49.00
2016-09-01T11:02:53.240Z,49.00
2016-09-01T11:03:53.752Z,50.00
2016-09-01T11:04:54.269Z,52.00
2016-09-01T11:05:54.920Z,51.00
2016-09-01T11:06:55.285Z,47.00
2016-09-01T11:07:55.975Z,42.00
2016-09-01T11:08:56.327Z,23.00
2016-09-01T11:09:56.815Z,22.00
2016-09-01T11:10:57.335Z,22.00
2016-09-01T11:11:57.847Z,48.00
2016-09-01T11:12:58.503Z,49.00
2016-09-01T11:13:58.864Z,53.00
2016-09-01T11:14:59.526Z,53.00
2016-09-01T11:15:59.886Z,52.00
2016-09-01T11:17:00.665Z,47.00
2016-09-01T11:18:00.915Z,45.00
2016-09-01T11:19:01.428Z,51.00
2016-09-01T11:20:02.103Z,52.00
2016-09-01T11:21:02.449Z,51.00
2016-09-01T11:22:02.997Z,52.00
2016-09-01T11:23:03.631Z,51.00
2016-09-01T11:24:04.287Z,53.00
2016-09-01T11:25:04.496Z,54.00
2016-09-01T11:26:05.310Z,26.00
2016-09-01T11:27:05.516Z,25.00
2016-09-01T11:28:06.183Z,52.00
2016-09-01T11:29:07.289Z,55.00
2016-09-01T11:30:09.610Z,57.00
2016-09-01T11:31:07.567Z,56.00
2016-09-01T11:32:08.241Z,56.00
2016-09-01T11:33:08.743Z,58.00
2016-09-01T11:34:09.123Z,57.00
2016-09-01T11:35:09.617Z,56.00
2016-09-01T11:36:10.148Z,57.00
2016-09-01T11:37:10.641Z,57.00
2016-09-01T11:38:11.156Z,57.00
2016-09-01T11:39:11.679Z,33.00
2016-09-01T11:40:12.340Z,52.00
2016-09-01T11:41:12.851Z,51.00
2016-09-01T11:42:13.515Z,22.00
2016-09-01T11:43:13.726Z,24.00
2016-09-01T11:44:14.232Z,59.00
2016-09-01T11:45:14.896Z,59.00
2016-09-01T11:46:15.260Z,41.00
2016-09-01T11:47:15.920Z,54.00
2016-09-01T11:48:16.287Z,60.00
2016-09-01T11:49:16.798Z,60.00
2016-09-01T11:50:17.302Z,61.00
2016-09-01T11:51:17.818Z,62.00
2016-09-01T11:52:18.475Z,62.00
2016-09-01T11:53:18.835Z,63.00
2016-09-01T11:54:19.352Z,62.00
2016-09-01T11:55:20.017Z,59.00
2016-09-01T11:56:20.375Z,62.00
2016-09-01T11:57:21.038Z,61.00
2016-09-01T11:58:21.403Z,60.00
2016-09-01T11:59:21.912Z,64.00
2016-09-01T12:00:22.724Z,65.00
2016-09-01T12:01:22.934Z,56.00
2016-09-01T12:02:23.444Z,63.00
2016-09-01T12:03:24.103Z,65.00
2016-09-01T12:04:24.464Z,64.00
2016-09-01T12:05:24.984Z,64.00
2016-09-01T12:06:25.489Z,62.00
2016-09-01T12:07:26.000Z,66.00
2016-09-01T12:08:26.660Z,66.00
2016-09-01T12:09:27.021Z,66.00
2016-09-01T12:10:27.534Z,66.00
2016-09-01T12:11:28.205Z,66.00
2016-09-01T12:12:30.210Z,32.00
2016-09-01T12:13:29.069Z,32.00
2016-09-01T12:14:29.605Z,48.00
2016-09-01T12:15:30.102Z,23.00
2016-09-01T12:16:30.614Z,21.00
2016-09-01T12:17:31.140Z,21.00
2016-09-01T12:18:31.637Z,21.00
2016-09-01T12:19:32.155Z,22.00
2016-09-01T12:20:32.812Z,24.00
2016-09-01T12:21:33.184Z,29.00
2016-09-01T12:22:33.689Z,60.00
2016-09-01T12:23:34.201Z,67.00
2016-09-01T12:24:35.042Z,68.00
2016-09-01T12:25:35.373Z,68.00
2016-09-01T12:26:35.731Z,66.00
2016-09-01T12:27:36.246Z,70.00
2016-09-01T12:28:36.755Z,73.00
2016-09-01T12:29:37.267Z,71.00
2016-09-01T12:30:37.792Z,73.00
2016-09-01T12:31:38.307Z,75.00
2016-09-01T12:32:38.807Z,74.00
2016-09-01T12:33:39.327Z,77.00
2016-09-01T12:34:39.836Z,32.00
2016-09-01T12:35:40.341Z,73.00
2016-09-01T12:36:40.857Z,72.00
2016-09-01T12:37:41.365Z,49.00
2016-09-01T12:38:41.882Z,40.00
2016-09-01T12:39:42.396Z,53.00
2016-09-01T12:40:42.907Z,36.00
2016-09-01T12:41:43.420Z,25.00
2016-09-01T12:42:44.083Z,25.00
2016-09-01T12:43:44.591Z,24.00
2016-09-01T12:44:44.953Z,23.00
2016-09-01T12:45:45.470Z,23.00
2016-09-01T12:46:45.976Z,25.00
2016-09-01T12:47:46.489Z,63.00
2016-09-01T12:48:46.999Z,27.00
2016-09-01T12:49:47.662Z,63.00
2016-09-01T12:50:48.626Z,70.00
2016-09-01T12:51:48.842Z,70.00
2016-09-01T12:52:49.066Z,74.00
2016-09-01T12:53:49.576Z,74.00
2016-09-01T12:54:50.110Z,79.00
2016-09-01T12:55:50.749Z,81.00
2016-09-01T12:56:51.111Z,82.00
2016-09-01T12:57:51.771Z,70.00
2016-09-01T12:58:52.132Z,66.00
2016-09-01T12:59:52.647Z,68.00
2016-09-01T13:00:53.153Z,74.00
2016-09-01T13:01:53.822Z,75.00
2016-09-01T13:02:54.177Z,74.00
2016-09-01T13:03:54.690Z,70.00
2016-09-01T13:04:55.205Z,68.00
2016-09-01T13:05:55.717Z,67.00
2016-09-01T13:06:56.377Z,53.00
2016-09-01T13:07:56.886Z,41.00
2016-09-01T13:08:57.424Z,29.00
2016-09-01T13:09:57.767Z,29.00
2016-09-01T13:10:58.423Z,27.00